Capitol Logistics 265


PANC
Ted Stevens Anchorage International Airport
Anchorage, Alaska, US
KORD
Chicago O'Hare International Airport
Chicago, Illinois, US

Route Details

Aircraft Information
Primary: Boeing 747-400BCF
Backup: Boeing 777-200LRF
Route Data
Distance: 2470nm
Sched. Duration: 5h 20m
Avg. Duration: 5h 43m (+24m)
Times Flown: 5
Recm'd Route: TED YESKA NCA13 YQD J596 YWG GEP ZZIPR FYTTE5
Planned Altitude: 35,000ft
Origin Wx: PANC 190753Z 16009KT 7SM -RA FEW006 BKN011 OVC020 01/00 A2912 RMK AO2 SLP862 P0003 T00110000
Dest. Wx: KORD 190751Z 26005KT 10SM FEW110 M06/M09 A3009 RMK AO2 SLP198 T10611094 $
Notes:

Financial History
Total Freight: 911,026lbs
Average Load: 182,205lbs/flt
Fuel Used: 538,653lbs
Avg. Fuel Used: 107,731lbs/flt
Fuel Expense: $673,851
Avg. Fuel Expense: $134,770
Avg. Fuel Cost: $1.25/lbs
Total Gross Income: $1,829,521
Pilot Pay: $905
Total Expenses: $197,848
Total Revenue: $952,062
Average Revenue: $365,904.24